Thursday, November 15, 2018, 8:13 PM EST
Back to Local

KBVY, Beverly Municipal Airport

Location: Danvers, MA, United States Lat: 42.583
Local Time: 8:13 PM EST ( 1:13 GMT) Lon: -70.917
Time Zone: US/Eastern Elev: 108 ft

Show me the last for .
Show Decoded

2018-11-15 19:53 METAR KBVY 160053Z 04005KT 9SM OVC037 01/M04 A3035 RMK AO2 SNB39E50 SLP275 P0000
                 T00111044 =
2018-11-15 18:53 METAR KBVY 152353Z 01005KT 10SM OVC033 00/M06 A3038 RMK AO2 SLP285 T00001056
                 10000 21011 58012 =
2018-11-15 18:21 METAR KBVY 152321Z 01006KT 10SM BKN028 OVC034 M01/M06 A3039 RMK AO2 T10061061 =
2018-11-15 17:53 METAR KBVY 152253Z 36005KT 10SM OVC030 M01/M07 A3040 RMK AO2 SLP293 T10061067 =
2018-11-15 17:49 METAR KBVY 152249Z 36005KT 10SM BKN028 OVC034 M01/M07 A3040 RMK AO2 =
2018-11-15 17:16 METAR KBVY 152216Z 01005KT 10SM BKN031 M01/M07 A3040 RMK AO2 T10111072 =
2018-11-15 17:03 METAR KBVY 152203Z 03005KT 10SM BKN029 M01/M07 A3041 RMK AO2 PRESFR T10111072 =
2018-11-15 16:53 METAR KBVY 152153Z 03004KT 10SM SCT030 M01/M07 A3042 RMK AO2 SLP298 T10111072 =
2018-11-15 15:53 METAR KBVY 152053Z 06005KT 10SM CLR M01/M08 A3046 RMK AO2 SLP312 T10111078 58026
                 =
2018-11-15 14:53 METAR KBVY 151953Z 11003KT 10SM CLR M01/M10 A3048 RMK AO2 SLP320 T10061100 =
2018-11-15 13:53 METAR KBVY 151853Z 00000KT 10SM CLR M01/M12 A3052 RMK AO2 SLP331 T10061122 =
2018-11-15 12:53 METAR KBVY 151753Z 00000KT 10SM CLR M01/M13 A3054 RMK AO2 SLP338 T10111128 11006
                 21061 58020 =
2018-11-15 11:53 METAR KBVY 151653Z 00000KT 10SM CLR M02/M11 A3056 RMK AO2 SLP347 T10171111 =
2018-11-15 10:53 METAR KBVY 151553Z 00000KT 10SM CLR M02/M13 A3059 RMK AO2 SLP357 T10221133 =
2018-11-15 09:53 METAR KBVY 151453Z 00000KT 10SM CLR M03/M14 A3060 RMK AO2 SLP360 T10331139 58001
                 =
2018-11-15 08:53 METAR KBVY 151353Z 34004KT 10SM CLR M04/M14 A3063 RMK AO2 SLP370 T10441139 =
2018-11-15 07:53 METAR KBVY 151253Z 33005KT 10SM CLR M06/M13 A3061 RMK AO2 SLP365 T10561133 =
2018-11-15 06:53 METAR KBVY 151153Z 31005KT 10SM CLR M06/M14 A3060 RMK AO2 SLP361 T10611139 11056
                 21067 53001 =
2018-11-15 05:53 METAR KBVY 151053Z AUTO 34007KT 10SM CLR M06/M14 A3060 RMK AO2 SLP360 T10611139
                 =
2018-11-15 04:53 METAR KBVY 150953Z AUTO 31006KT 10SM CLR M07/M14 A3060 RMK AO2 SLP360 T10671139
                 =
2018-11-15 03:53 METAR KBVY 150853Z AUTO 29006KT 10SM CLR M06/M14 A3060 RMK AO2 SLP359 T10611144
                 51007 =
2018-11-15 02:53 METAR KBVY 150753Z AUTO 30006KT 10SM CLR M06/M14 A3060 RMK AO2 SLP359 T10611144
                 =
2018-11-15 01:53 METAR KBVY 150653Z AUTO 30005KT 10SM CLR M06/M14 A3061 RMK AO2 SLP362 T10611144
                 =
2018-11-15 00:53 METAR KBVY 150553Z AUTO 32010KT 10SM CLR M06/M14 A3058 RMK AO2 SLP352 T10611144
                 11022 21061 51005 =
2018-11-14 23:53 METAR KBVY 150453Z AUTO 33008KT 10SM CLR M06/M15 A3057 RMK AO2 SLP350 T10561150
                 400391056 =
2018-11-14 22:53 METAR KBVY 150353Z AUTO 33010KT 10SM CLR M06/M14 A3058 RMK AO2 SLP353 T10561144
                 =
2018-11-14 21:53 METAR KBVY 150253Z AUTO 32010KT 10SM CLR M05/M15 A3056 RMK AO2 SLP347 T10501150
                 51020 =
2018-11-14 20:53 METAR KBVY 150153Z AUTO 32013G24KT 10SM CLR M04/M15 A3055 RMK AO2 SLP343
                 T10441150 =

Support USWX by starting your Amazon purchase here.